Time;durP1;ratioP1;P1;durP2;ratioP2;P2;SDS_P1;SDS_P2;PMS_P1;PMS_P2;Temp;Humidity;BMP_temperature;BMP_pressure;BME280_temperature;BME280_humidity;BME280_pressure;Samples;Min_cycle;Max_cycle;Signal;HPM_P1;HPM_P2
2023/01/22 00:02:01;;;;;;;41.45;28.75;;;;;;;8.44;65.11;94764.75;5061610;28;20024;-75
2023/01/22 00:04:26;;;;;;;49.88;37.65;;;;;;;8.44;65.63;94777.69;5061673;28;20024;-75
2023/01/22 00:06:51;;;;;;;52.63;40.95;;;;;;;8.43;65.66;94784.34;5065378;28;20021;-75
2023/01/22 00:09:17;;;;;;;55.92;45.28;;;;;;;8.42;65.98;94793.75;5062258;28;20032;-75
2023/01/22 00:11:42;;;;;;;52.38;41.08;;;;;;;8.35;66.64;94788.41;5064760;28;20031;-75
2023/01/22 00:14:08;;;;;;;45.05;35.55;;;;;;;8.19;67.78;94773.47;5063159;28;20039;-75
2023/01/22 00:16:33;;;;;;;52.90;39.25;;;;;;;8.28;67.38;94780.34;5064275;28;20532;-76
2023/01/22 00:18:59;;;;;;;57.28;41.30;;;;;;;8.33;67.84;94774.38;5062801;28;20074;-75
2023/01/22 00:21:26;;;;;;;40.03;32.25;;;;;;;8.36;67.55;94759.84;5063964;28;20032;-76
2023/01/22 00:23:52;;;;;;;50.72;40.13;;;;;;;8.44;67.45;94769.47;5064516;28;20028;-75
2023/01/22 00:26:17;;;;;;;36.78;28.13;;;;;;;8.46;67.36;94776.03;5062076;28;20047;-76
2023/01/22 00:28:46;;;;;;;40.90;29.02;;;;;;;8.40;67.22;94766.03;5062148;28;20029;-75
2023/01/22 00:31:13;;;;;;;38.25;29.13;;;;;;;8.31;68.12;94757.59;5061263;28;20028;-77
2023/01/22 00:33:39;;;;;;;37.28;26.38;;;;;;;8.26;68.13;94764.38;5063751;28;20032;-74
2023/01/22 00:36:14;;;;;;;33.38;24.02;;;;;;;8.25;68.29;94752.59;5062801;28;20032;-75
2023/01/22 00:38:39;;;;;;;29.98;20.92;;;;;;;8.29;67.70;94779.94;5062265;28;20035;-75
2023/01/22 00:41:06;;;;;;;28.85;20.23;;;;;;;8.16;67.97;94779.81;5061572;28;20017;-75
2023/01/22 00:43:34;;;;;;;27.60;19.98;;;;;;;8.17;68.48;94781.38;5062479;28;20437;-74
2023/01/22 00:46:00;;;;;;;30.15;19.60;;;;;;;8.21;68.03;94786.78;5063528;28;20059;-75
2023/01/22 00:48:26;;;;;;;21.92;16.13;;;;;;;8.14;68.19;94774.00;5060925;28;20129;-74
2023/01/22 00:50:51;;;;;;;23.05;16.33;;;;;;;8.18;68.15;94780.16;5063253;28;20020;-74
2023/01/22 00:53:17;;;;;;;20.95;15.68;;;;;;;8.22;67.98;94777.34;5062784;28;20028;-75
2023/01/22 00:55:52;;;;;;;22.90;16.05;;;;;;;8.33;68.02;94785.34;5067127;28;20032;-76
2023/01/22 00:58:18;;;;;;;22.92;14.73;;;;;;;8.30;67.61;94794.38;5066633;28;20555;-75
2023/01/22 01:00:43;;;;;;;24.67;14.25;;;;;;;8.32;67.48;94792.00;5066187;28;20100;-76
2023/01/22 01:03:27;;;;;;;20.77;14.57;;;;;;;8.36;67.45;94793.47;5067607;28;20025;-75
2023/01/22 01:06:00;;;;;;;25.27;16.27;;;;;;;8.47;67.49;94807.72;5066201;28;20093;-76
2023/01/22 01:08:26;;;;;;;;;;;;;;;8.51;67.63;94816.63;5066818;28;20425;-75
2023/01/22 01:10:56;;;;;;;23.85;16.25;;;;;;;8.45;67.94;94807.38;5066293;28;20481;-74
2023/01/22 01:13:22;;;;;;;24.00;16.27;;;;;;;8.38;68.09;94813.03;5064733;28;20048;-75
2023/01/22 01:15:48;;;;;;;24.67;15.60;;;;;;;8.39;68.21;94820.03;5065212;28;20067;-73
2023/01/22 01:18:14;;;;;;;21.98;15.55;;;;;;;8.40;68.19;94842.72;5065443;28;20068;-75
2023/01/22 01:20:40;;;;;;;24.67;16.58;;;;;;;8.42;68.20;94838.34;5066604;28;20021;-75
2023/01/22 01:23:05;;;;;;;25.17;17.33;;;;;;;8.50;67.87;94831.53;5064180;28;20130;-74
2023/01/22 01:25:31;;;;;;;30.65;18.23;;;;;;;8.56;68.12;94820.06;5066556;28;20024;-74
2023/01/22 01:27:56;;;;;;;26.80;17.05;;;;;;;8.59;67.88;94830.94;5065570;28;20086;-75
2023/01/22 01:30:22;;;;;;;24.48;16.10;;;;;;;8.60;67.94;94843.47;5066124;28;20103;-75
2023/01/22 01:32:48;;;;;;;22.98;16.27;;;;;;;8.64;67.55;94855.09;5064441;28;20028;-75
2023/01/22 01:35:13;;;;;;;21.98;16.33;;;;;;;8.65;67.27;94862.09;5065750;28;20166;-74
2023/01/22 01:37:39;;;;;;;21.58;15.32;;;;;;;8.67;67.35;94864.44;5066433;28;20108;-75
2023/01/22 01:40:05;;;;;;;21.67;15.32;;;;;;;8.69;67.48;94840.88;5065236;28;20037;-75
2023/01/22 01:42:34;;;;;;;23.60;14.88;;;;;;;8.70;67.19;94847.91;5064668;28;20403;-75
2023/01/22 01:45:28;;;;;;;19.00;14.57;;;;;;;8.76;67.26;94857.16;5064158;28;20016;-75
2023/01/22 01:48:10;;;;;;;18.92;13.15;;;;;;;8.63;67.60;94850.81;5065342;28;20100;-74
2023/01/22 01:50:38;;;;;;;22.27;14.77;;;;;;;8.59;67.72;94841.88;5066008;28;20408;-74
2023/01/22 01:53:03;;;;;;;19.85;14.02;;;;;;;8.60;67.88;94854.41;5047261;28;20468;-73
2023/01/22 01:55:30;;;;;;;20.95;14.23;;;;;;;8.66;68.14;94849.19;5065665;28;20032;-75
2023/01/22 01:58:00;;;;;;;20.90;13.88;;;;;;;8.73;67.75;94846.28;5065137;28;20180;-74
2023/01/22 02:00:28;;;;;;;22.15;14.45;;;;;;;8.78;67.56;94843.03;5065910;28;20067;-74
2023/01/22 02:02:54;;;;;;;18.67;14.20;;;;;;;8.73;67.78;94849.03;5065533;28;20047;-74
2023/01/22 02:05:20;;;;;;;20.90;14.90;;;;;;;8.82;67.69;94848.44;5064301;28;20032;-74
2023/01/22 02:07:46;;;;;;;21.13;14.70;;;;;;;8.81;67.80;94833.19;5047427;28;20067;-75
2023/01/22 02:10:12;;;;;;;21.30;15.13;;;;;;;8.80;67.66;94839.88;5063296;28;20036;-75
2023/01/22 02:12:37;;;;;;;18.15;14.02;;;;;;;8.84;67.76;94852.28;5065419;28;20021;-75
2023/01/22 02:15:04;;;;;;;22.77;15.48;;;;;;;8.89;67.69;94845.50;5063550;28;20021;-75
2023/01/22 02:17:30;;;;;;;22.73;15.43;;;;;;;8.87;67.78;94839.69;5063353;28;20056;-75
2023/01/22 02:19:55;;;;;;;23.00;15.82;;;;;;;8.89;67.83;94838.09;5064874;28;20029;-75
2023/01/22 02:22:28;;;;;;;22.75;14.80;;;;;;;8.96;67.25;94850.84;5064336;28;20044;-74
2023/01/22 02:24:54;;;;;;;21.05;15.45;;;;;;;8.92;67.01;94853.66;5065139;28;20025;-75
2023/01/22 02:27:19;;;;;;;19.60;13.60;;;;;;;8.85;66.95;94845.63;5064323;28;20271;-75
2023/01/22 02:29:45;;;;;;;23.75;15.25;;;;;;;8.78;67.57;94843.03;5063674;28;20064;-75
2023/01/22 02:32:11;;;;;;;21.27;14.02;;;;;;;8.65;67.85;94823.75;5063831;28;20640;-74
2023/01/22 02:34:36;;;;;;;18.38;12.90;;;;;;;8.64;67.73;94822.22;5063472;28;20052;-75
2023/01/22 02:37:02;;;;;;;16.80;10.77;;;;;;;8.45;67.16;94836.75;5064379;28;20410;-74
2023/01/22 02:39:27;;;;;;;16.75;12.25;;;;;;;8.32;67.81;94838.56;5064533;28;20093;-74
2023/01/22 02:41:53;;;;;;;17.38;11.48;;;;;;;8.29;67.52;94829.22;5063202;28;20025;-74
2023/01/22 02:44:18;;;;;;;17.08;10.88;;;;;;;8.28;67.56;94830.44;5062377;28;20040;-75
2023/01/22 02:46:44;;;;;;;14.40;9.88;;;;;;;8.35;67.74;94841.22;5063622;28;20021;-74
2023/01/22 02:49:09;;;;;;;15.23;11.02;;;;;;;8.45;67.60;94842.22;5062254;28;20567;-75
2023/01/22 02:51:35;;;;;;;13.93;10.10;;;;;;;8.43;67.25;94845.41;5063275;28;20532;-73
2023/01/22 02:54:00;;;;;;;15.90;11.13;;;;;;;8.46;67.05;94854.72;5063032;28;20038;-74
2023/01/22 02:56:26;;;;;;;13.77;10.50;;;;;;;8.46;67.00;94855.50;5064316;28;20459;-74
2023/01/22 02:58:51;;;;;;;16.02;10.52;;;;;;;8.46;67.00;94843.75;5064145;28;20028;-75
2023/01/22 03:01:19;;;;;;;17.60;10.98;;;;;;;8.47;66.89;94867.97;5064463;28;20021;-74
2023/01/22 03:03:48;;;;;;;15.13;10.52;;;;;;;8.42;66.76;94854.78;5065533;28;20097;-74
2023/01/22 03:06:14;;;;;;;12.57;8.93;;;;;;;8.36;66.92;94859.22;5064413;28;20502;-75
2023/01/22 03:08:42;;;;;;;14.60;8.88;;;;;;;8.32;67.02;94858.53;5064016;28;20032;-75
2023/01/22 03:11:08;;;;;;;12.30;8.40;;;;;;;8.36;67.22;94858.47;5064681;28;20024;-75
2023/01/22 03:21:48;;;;;;;22.75;12.98;;;;;;;8.32;68.11;94853.03;5065386;28;20661;-73
2023/01/22 03:24:14;;;;;;;19.27;12.15;;;;;;;8.35;68.05;94854.91;5064540;28;20025;-74
2023/01/22 03:26:39;;;;;;;19.17;13.00;;;;;;;8.40;67.85;94845.47;5063533;28;20025;-74
2023/01/22 03:29:04;;;;;;;17.83;11.90;;;;;;;8.43;68.11;94847.34;5065020;28;20120;-75
2023/01/22 03:31:30;;;;;;;19.55;13.70;;;;;;;8.42;68.10;94846.56;5062807;28;20055;-75
2023/01/22 03:33:56;;;;;;;22.42;14.80;;;;;;;8.38;68.41;94850.59;5065294;28;20020;-75
2023/01/22 03:36:21;;;;;;;20.60;13.85;;;;;;;8.36;68.33;94847.50;5062653;28;20423;-75
2023/01/22 03:38:47;;;;;;;19.33;14.18;;;;;;;8.27;68.53;94863.72;5065251;28;20033;-74
2023/01/22 03:41:14;;;;;;;20.58;14.70;;;;;;;8.11;69.08;94856.22;5064438;28;20029;-76
2023/01/22 03:43:40;;;;;;;20.80;14.20;;;;;;;7.95;69.39;94854.97;5065362;28;20039;-75
2023/01/22 03:46:14;;;;;;;22.80;14.38;;;;;;;7.95;69.48;94860.44;5064260;28;20025;-75
2023/01/22 03:48:40;;;;;;;21.42;13.73;;;;;;;7.95;69.51;94860.44;5065160;28;20123;-75
2023/01/22 03:51:09;;;;;;;22.17;14.43;;;;;;;7.89;69.60;94861.34;5065427;28;20040;-74
2023/01/22 03:53:35;;;;;;;17.77;13.38;;;;;;;7.89;69.40;94864.84;5062813;28;20550;-74
2023/01/22 03:56:04;;;;;;;19.00;13.13;;;;;;;7.90;69.46;94863.66;5063650;28;20116;-74
2023/01/22 03:58:29;;;;;;;18.58;13.38;;;;;;;7.85;69.27;94860.63;5063819;28;20050;-75
2023/01/22 04:00:58;;;;;;;17.38;12.35;;;;;;;7.82;68.95;94866.97;5064809;28;20021;-75
2023/01/22 04:03:25;;;;;;;15.05;10.63;;;;;;;7.65;69.27;94871.56;5064215;28;20553;-74
2023/01/22 04:05:51;;;;;;;13.10;8.68;;;;;;;7.71;68.94;94872.63;5064544;28;20020;-74
2023/01/22 04:08:16;;;;;;;9.93;6.60;;;;;;;7.81;67.58;94871.66;5064527;28;20055;-76
2023/01/22 04:10:42;;;;;;;10.88;6.90;;;;;;;7.76;67.51;94877.63;5063963;28;20465;-74
2023/01/22 04:13:07;;;;;;;6.78;5.57;;;;;;;7.68;66.94;94876.19;5065126;28;20021;-74
2023/01/22 04:15:33;;;;;;;7.80;5.70;;;;;;;7.72;66.92;94880.41;5064045;28;20032;-74
2023/01/22 04:17:58;;;;;;;8.45;4.97;;;;;;;7.74;66.86;94877.25;5064572;28;20040;-74
2023/01/22 04:20:23;;;;;;;9.93;5.53;;;;;;;7.73;66.64;94884.69;5063872;28;20475;-73
2023/01/22 04:22:49;;;;;;;8.55;5.70;;;;;;;7.63;67.02;94880.22;5064534;28;20024;-74
2023/01/22 04:25:14;;;;;;;7.78;5.20;;;;;;;7.60;67.07;94889.25;5064033;28;20032;-75
2023/01/22 04:27:40;;;;;;;9.32;5.38;;;;;;;7.55;67.16;94887.00;5062498;28;20110;-74
2023/01/22 04:30:06;;;;;;;9.90;4.40;;;;;;;7.56;67.48;94891.25;5067529;28;20021;-75
2023/01/22 04:32:31;;;;;;;8.70;5.45;;;;;;;7.59;67.31;94892.41;5067222;28;20465;-75
2023/01/22 04:34:57;;;;;;;7.60;4.93;;;;;;;7.67;67.40;94896.53;5066881;28;20028;-75
2023/01/22 04:37:22;;;;;;;9.48;5.30;;;;;;;7.69;67.55;94902.41;5067216;28;20074;-75
2023/01/22 04:39:48;;;;;;;9.00;5.85;;;;;;;7.78;67.62;94904.56;5068209;28;20028;-75
2023/01/22 04:42:13;;;;;;;17.92;9.90;;;;;;;7.83;67.88;94913.06;5067514;28;20421;-75
2023/01/22 04:44:39;;;;;;;18.52;11.25;;;;;;;7.90;67.95;94923.09;5066822;28;20107;-74
2023/01/22 04:47:04;;;;;;;18.25;12.38;;;;;;;7.93;67.73;94930.50;5068638;28;20031;-75
2023/01/22 04:49:29;;;;;;;19.92;12.55;;;;;;;7.93;67.91;94925.78;5066940;28;20024;-73
2023/01/22 04:51:55;;;;;;;17.98;12.07;;;;;;;7.95;68.06;94937.06;5067970;28;20402;-74
2023/01/22 04:54:20;;;;;;;17.55;12.35;;;;;;;7.91;68.02;94932.84;5067045;28;20052;-75
2023/01/22 04:56:46;;;;;;;18.05;12.07;;;;;;;7.86;67.59;94936.88;5068281;28;20021;-73
2023/01/22 04:59:11;;;;;;;15.02;11.13;;;;;;;7.80;67.66;94935.81;5067632;28;20024;-74
2023/01/22 05:01:37;;;;;;;15.73;11.70;;;;;;;7.79;67.78;94945.19;5067651;28;20025;-73
2023/01/22 05:04:02;;;;;;;16.85;11.20;;;;;;;7.82;67.79;94949.84;5067441;28;20422;-73
2023/01/22 05:06:29;;;;;;;15.57;10.77;;;;;;;7.87;67.64;94949.34;5066591;28;20052;-74
2023/01/22 05:08:54;;;;;;;16.05;11.90;;;;;;;7.88;67.66;94959.09;5066289;28;20467;-73
2023/01/22 05:11:20;;;;;;;18.77;12.63;;;;;;;7.93;67.51;94966.06;5065060;28;20377;-75
2023/01/22 05:13:45;;;;;;;19.67;13.30;;;;;;;7.90;67.24;94973.13;5067801;28;20025;-73
2023/01/22 05:16:10;;;;;;;19.55;13.70;;;;;;;7.87;67.16;94970.47;5066845;28;20036;-73
2023/01/22 05:18:36;;;;;;;19.42;13.18;;;;;;;7.88;67.03;94975.53;5067388;28;20025;-75
2023/01/22 05:21:02;;;;;;;20.45;14.00;;;;;;;7.89;67.10;94984.50;5067577;28;20453;-75
2023/01/22 05:23:27;;;;;;;24.58;15.20;;;;;;;7.87;67.01;94992.38;5066725;28;20475;-75
2023/01/22 05:25:52;;;;;;;24.83;14.80;;;;;;;7.87;67.23;94989.66;5067204;28;20058;-74
2023/01/22 05:28:18;;;;;;;20.98;13.30;;;;;;;7.88;67.06;94993.94;5064899;28;20048;-75
2023/01/22 05:30:43;;;;;;;19.30;12.55;;;;;;;7.81;67.09;94981.13;5067369;28;20043;-75
2023/01/22 05:33:09;;;;;;;19.80;12.55;;;;;;;7.91;66.98;95002.09;5066466;28;20414;-74
2023/01/22 05:35:34;;;;;;;16.40;11.05;;;;;;;7.89;66.80;95006.41;5067256;28;20513;-74
2023/01/22 05:37:59;;;;;;;15.65;10.88;;;;;;;7.88;66.51;95011.13;5066563;28;20107;-74
2023/01/22 05:40:25;;;;;;;15.02;10.25;;;;;;;7.90;66.47;95018.91;5066207;28;20029;-73
2023/01/22 05:42:50;;;;;;;14.23;9.10;;;;;;;7.88;65.72;95030.28;5067475;28;20111;-74
2023/01/22 05:45:15;;;;;;;15.23;9.35;;;;;;;7.84;66.20;95031.53;5065900;28;20430;-74
2023/01/22 05:47:41;;;;;;;13.25;9.13;;;;;;;7.77;66.51;95034.38;5048865;28;20035;-75
2023/01/22 05:50:07;;;;;;;12.73;9.05;;;;;;;7.79;66.27;95037.47;5066138;28;20107;-73
2023/01/22 05:52:32;;;;;;;13.07;8.70;;;;;;;7.78;66.27;95036.69;5066560;28;20781;-74
2023/01/22 05:55:00;;;;;;;14.30;8.95;;;;;;;7.73;66.52;95040.66;5065889;28;20031;-73
2023/01/22 05:57:28;;;;;;;13.55;9.32;;;;;;;7.74;66.59;95049.66;5066514;28;20052;-74
2023/01/22 05:59:54;;;;;;;13.85;10.18;;;;;;;7.78;66.30;95047.66;5066256;28;20522;-74
2023/01/22 06:02:19;;;;;;;17.00;10.65;;;;;;;7.84;65.94;95054.19;5047785;28;20029;-74
2023/01/22 06:04:44;;;;;;;16.23;10.02;;;;;;;7.86;66.00;95059.25;5066618;28;20441;-74
2023/01/22 06:07:10;;;;;;;13.50;10.25;;;;;;;7.83;65.98;95055.38;5065667;28;20471;-75
2023/01/22 06:09:35;;;;;;;15.55;10.52;;;;;;;7.87;65.82;95060.81;5066288;28;20043;-74
2023/01/22 06:12:00;;;;;;;18.40;12.32;;;;;;;7.90;65.51;95070.91;5065623;28;20483;-75
2023/01/22 06:14:26;;;;;;;17.33;11.90;;;;;;;7.78;65.67;95068.75;5066370;28;20104;-73
2023/01/22 06:16:51;;;;;;;18.98;12.30;;;;;;;7.71;65.94;95066.91;5065571;28;20067;-73
2023/01/22 06:19:17;;;;;;;18.63;11.95;;;;;;;7.69;66.53;95070.06;5065797;28;20103;-73
2023/01/22 06:21:42;;;;;;;19.98;11.95;;;;;;;7.72;66.34;95077.44;5066039;28;20142;-74
2023/01/22 06:24:08;;;;;;;18.60;12.75;;;;;;;7.74;66.37;95085.22;5064011;28;20031;-74
2023/01/22 06:26:33;;;;;;;20.38;12.73;;;;;;;7.73;66.66;95078.97;5066286;28;20399;-75
2023/01/22 06:28:59;;;;;;;20.48;13.35;;;;;;;7.83;66.33;95081.97;5065194;28;20052;-75
2023/01/22 06:31:24;;;;;;;20.65;13.13;;;;;;;7.72;66.60;95087.63;5047733;28;20028;-74
2023/01/22 06:33:53;;;;;;;18.90;12.60;;;;;;;7.57;67.09;95081.59;5064749;28;20410;-73
2023/01/22 06:36:19;;;;;;;21.00;12.73;;;;;;;7.68;67.08;95087.69;5066185;28;20511;-74
2023/01/22 06:38:44;;;;;;;20.13;13.52;;;;;;;7.77;66.90;95092.63;5066326;28;20031;-74
2023/01/22 06:41:09;;;;;;;19.13;13.43;;;;;;;7.82;66.72;95092.16;5065329;28;20074;-74
2023/01/22 06:43:36;;;;;;;22.42;13.63;;;;;;;7.88;66.90;95101.44;5065701;28;20520;-76
2023/01/22 06:46:02;;;;;;;29.20;15.25;;;;;;;7.99;66.44;95101.28;5047078;28;20753;-75
2023/01/22 06:48:27;;;;;;;26.77;14.68;;;;;;;8.07;66.35;95097.22;5065437;28;20029;-74
2023/01/22 06:50:57;;;;;;;28.00;16.23;;;;;;;8.15;66.07;95106.09;5064844;28;20020;-76
2023/01/22 06:53:23;;;;;;;20.65;13.00;;;;;;;8.17;65.81;95111.94;5065298;28;20020;-74
2023/01/22 06:55:49;;;;;;;19.65;12.27;;;;;;;8.18;65.77;95114.25;5065313;28;20453;-75
2023/01/22 06:58:15;;;;;;;22.35;12.52;;;;;;;8.18;65.86;95119.72;5062096;28;20425;-75
2023/01/22 07:00:40;;;;;;;22.67;13.73;;;;;;;8.23;65.92;95123.97;5063627;28;20017;-75
2023/01/22 07:03:07;;;;;;;20.45;12.88;;;;;;;8.29;65.87;95121.50;5061627;28;20044;-76
2023/01/22 07:05:33;;;;;;;20.20;12.68;;;;;;;8.34;65.72;95127.28;5063895;28;20078;-77
2023/01/22 07:07:59;;;;;;;19.70;13.57;;;;;;;8.43;65.67;95132.25;5062930;28;20167;-76
2023/01/22 07:10:25;;;;;;;21.45;13.65;;;;;;;8.48;65.44;95132.53;5063989;28;20504;-75
2023/01/22 07:12:53;;;;;;;19.45;13.13;;;;;;;8.62;65.18;95128.78;5063201;28;20028;-76
2023/01/22 07:15:19;;;;;;;19.98;14.20;;;;;;;8.70;64.86;95123.94;5062003;28;20060;-76
2023/01/22 07:17:51;;;;;;;19.55;13.93;;;;;;;8.83;64.67;95124.88;5063378;28;20563;-75
2023/01/22 07:20:19;;;;;;;21.77;15.20;;;;;;;8.95;64.37;95126.22;5063089;28;20081;-76
2023/01/22 07:22:44;;;;;;;20.73;13.48;;;;;;;9.08;63.80;95132.63;5064009;28;20028;-75
2023/01/22 07:25:09;;;;;;;23.17;14.88;;;;;;;9.17;63.47;95138.28;5064293;28;20027;-75
2023/01/22 07:27:37;;;;;;;22.48;14.60;;;;;;;9.33;63.43;95134.84;5063865;28;20372;-75
2023/01/22 07:30:03;;;;;;;19.45;14.15;;;;;;;9.48;63.12;95140.81;5064441;28;20029;-75
2023/01/22 07:32:29;;;;;;;24.80;15.27;;;;;;;9.61;62.80;95133.47;5064314;28;20032;-74
2023/01/22 07:34:54;;;;;;;21.08;14.77;;;;;;;9.81;62.63;95139.69;5065215;28;20549;-76
2023/01/22 07:37:20;;;;;;;19.10;13.82;;;;;;;9.96;62.02;95139.34;5062617;28;20026;-75
2023/01/22 07:39:45;;;;;;;18.38;14.10;;;;;;;10.11;61.67;95137.84;5065265;28;20475;-75
2023/01/22 07:42:11;;;;;;;18.35;13.48;;;;;;;10.28;61.29;95153.16;5064111;28;20029;-76
2023/01/22 07:44:39;;;;;;;20.15;14.68;;;;;;;10.50;60.30;95156.16;5061739;28;20048;-76
2023/01/22 07:47:05;;;;;;;20.63;14.15;;;;;;;10.40;60.91;95156.41;5062602;28;20066;-74
2023/01/22 07:49:30;;;;;;;19.17;13.82;;;;;;;10.43;60.55;95152.78;5063463;28;20056;-75
2023/01/22 07:51:56;;;;;;;20.83;13.73;;;;;;;10.46;60.29;95151.94;5061529;28;20107;-76
2023/01/22 07:54:21;;;;;;;18.35;13.88;;;;;;;10.49;60.00;95153.81;5062568;28;20453;-75
2023/01/22 07:56:47;;;;;;;18.23;13.57;;;;;;;10.56;59.21;95146.19;5063401;28;20368;-75
2023/01/22 07:59:12;;;;;;;20.65;14.40;;;;;;;10.63;58.77;95150.72;5061617;28;20055;-75
2023/01/22 08:01:38;;;;;;;20.50;14.30;;;;;;;10.69;58.75;95148.97;5063245;28;20035;-76
2023/01/22 08:04:03;;;;;;;18.40;13.40;;;;;;;11.15;57.89;95160.72;5063571;28;20051;-75
2023/01/22 08:06:28;;;;;;;19.40;14.55;;;;;;;11.44;57.53;95155.19;5048904;28;20021;-75
2023/01/22 08:08:54;;;;;;;26.13;16.90;;;;;;;11.63;57.17;95167.22;5048498;28;20085;-77
2023/01/22 08:11:19;;;;;;;22.20;15.50;;;;;;;11.73;56.85;95168.91;5065626;28;20135;-75
2023/01/22 08:13:45;;;;;;;22.35;15.38;;;;;;;11.95;55.93;95164.34;5067167;28;20040;-74
2023/01/22 08:16:10;;;;;;;20.52;14.63;;;;;;;12.39;55.09;95175.59;5066352;28;20024;-72
2023/01/22 08:18:36;;;;;;;20.95;14.75;;;;;;;12.58;54.55;95173.78;5066921;28;20336;-73
2023/01/22 08:21:02;;;;;;;21.92;15.75;;;;;;;12.95;53.45;95166.59;5066145;28;20016;-74
2023/01/22 08:23:27;;;;;;;19.08;14.07;;;;;;;13.40;53.16;95170.22;5065412;28;20115;-74
2023/01/22 08:25:57;;;;;;;20.85;15.20;;;;;;;13.62;52.40;95179.28;5065050;28;20024;-73
2023/01/22 08:28:22;;;;;;;20.52;15.52;;;;;;;14.80;49.32;95186.56;5067514;28;20036;-75
2023/01/22 08:30:48;;;;;;;21.02;17.35;;;;;;;16.34;45.39;95185.34;5066441;28;20024;-73
2023/01/22 08:33:14;;;;;;;26.75;18.60;;;;;;;17.29;43.46;95181.88;5066230;28;20020;-74
2023/01/22 08:35:40;;;;;;;26.77;18.98;;;;;;;16.56;44.58;95171.97;5066229;28;20497;-74
2023/01/22 08:38:05;;;;;;;27.33;19.40;;;;;;;16.70;44.21;95171.34;5066183;28;20069;-74
2023/01/22 08:40:31;;;;;;;29.08;20.30;;;;;;;16.81;44.17;95175.59;5066493;28;20044;-74
2023/01/22 08:42:56;;;;;;;23.77;20.02;;;;;;;17.80;41.77;95174.53;5064688;28;20474;-74
2023/01/22 08:45:22;;;;;;;24.75;17.80;;;;;;;18.13;41.08;95182.69;5065250;28;20029;-73
2023/01/22 08:47:47;;;;;;;25.20;18.80;;;;;;;17.80;41.12;95180.09;5065980;28;20026;-73
2023/01/22 08:50:13;;;;;;;20.48;17.38;;;;;;;17.35;41.94;95176.44;5066316;28;20033;-75
2023/01/22 08:52:39;;;;;;;22.40;18.33;;;;;;;17.18;42.37;95182.44;5064676;28;20039;-73
2023/01/22 08:55:08;;;;;;;22.75;17.52;;;;;;;17.17;41.89;95186.47;5065958;28;20029;-74
2023/01/22 08:57:34;;;;;;;24.00;18.05;;;;;;;17.27;41.28;95180.84;5047015;28;20024;-75
2023/01/22 08:59:59;;;;;;;23.30;16.73;;;;;;;19.67;37.39;95181.06;5066806;28;20085;-74
2023/01/22 09:02:26;;;;;;;22.83;16.75;;;;;;;19.68;37.55;95190.94;5065849;28;20410;-75
2023/01/22 09:04:52;;;;;;;20.25;15.55;;;;;;;18.74;38.40;95189.22;5063928;28;20566;-74
2023/01/22 09:07:17;;;;;;;20.70;15.48;;;;;;;18.22;39.87;95179.78;5064871;28;20024;-75
2023/01/22 09:09:43;;;;;;;18.42;14.38;;;;;;;18.13;39.54;95180.69;5066305;28;20067;-74
2023/01/22 09:12:08;;;;;;;18.00;13.52;;;;;;;18.83;38.22;95180.75;5066233;28;20463;-74
2023/01/22 09:14:33;;;;;;;15.73;12.73;;;;;;;18.26;39.05;95172.78;5066621;28;20585;-76
2023/01/22 09:16:59;;;;;;;18.83;13.45;;;;;;;17.85;39.82;95177.41;5065838;28;20037;-75
2023/01/22 09:19:24;;;;;;;20.75;13.68;;;;;;;17.54;40.32;95177.81;5066852;28;20029;-75
2023/01/22 09:21:50;;;;;;;16.35;13.48;;;;;;;17.29;40.91;95184.66;5066439;28;20051;-75
2023/01/22 09:24:15;;;;;;;19.08;14.32;;;;;;;17.09;41.52;95182.50;5067424;28;20032;-75
2023/01/22 09:26:41;;;;;;;21.13;15.40;;;;;;;18.51;38.85;95181.75;5065151;28;20127;-74
2023/01/22 09:29:07;;;;;;;19.40;13.70;;;;;;;18.19;39.42;95184.31;5065653;28;20032;-76
2023/01/22 09:31:33;;;;;;;18.48;14.98;;;;;;;18.67;38.93;95175.72;5065852;28;20402;-79
2023/01/22 09:33:59;;;;;;;20.33;15.57;;;;;;;18.41;39.15;95181.13;5064752;28;20487;-76
2023/01/22 09:36:25;;;;;;;17.90;13.63;;;;;;;19.20;38.10;95183.00;5064159;28;20025;-75
2023/01/22 09:38:50;;;;;;;18.17;14.55;;;;;;;18.84;38.40;95179.50;5063624;28;20036;-76
2023/01/22 09:41:25;;;;;;;17.90;14.85;;;;;;;19.21;37.79;95172.63;5064640;28;20541;-77
2023/01/22 09:43:56;;;;;;;17.67;14.40;;;;;;;19.66;37.63;95184.31;5063917;28;20621;-78
2023/01/22 09:46:26;;;;;;;18.23;14.82;;;;;;;23.07;32.09;95179.50;5065280;28;20104;-78
2023/01/22 09:49:09;;;;;;;18.75;13.55;;;;;;;25.83;28.02;95185.34;5064073;28;20024;-75
2023/01/22 09:51:35;;;;;;;15.90;13.95;;;;;;;24.69;29.17;95183.47;5062095;28;20348;-77
2023/01/22 09:54:02;;;;;;;19.77;15.20;;;;;;;24.16;29.59;95176.47;5065458;28;20029;-77
2023/01/22 09:56:36;;;;;;;19.48;15.75;;;;;;;24.83;28.60;95185.16;5063355;28;20074;-78
2023/01/22 09:59:03;;;;;;;18.83;16.67;;;;;;;26.93;26.41;95183.41;5064238;28;20051;-77
2023/01/22 10:01:29;;;;;;;17.80;15.90;;;;;;;29.15;23.21;95186.09;5064667;28;20020;-77
2023/01/22 10:04:02;;;;;;;14.38;12.88;;;;;;;30.70;20.96;95177.75;5047932;28;20029;-76
2023/01/22 10:06:28;;;;;;;;;;;;;;;32.30;19.34;95179.53;5064128;28;20021;-77
2023/01/22 10:09:09;;;;;;;13.55;11.00;;;;;;;33.74;18.12;95188.34;5062833;28;20419;-76
2023/01/22 10:11:35;;;;;;;16.23;12.65;;;;;;;34.95;16.72;95190.25;5062985;28;20067;-76
2023/01/22 10:14:01;;;;;;;12.77;10.45;;;;;;;36.01;15.14;95184.75;5065952;28;20028;-76
2023/01/22 10:16:27;;;;;;;11.68;10.20;;;;;;;35.56;15.54;95183.53;5063177;28;20052;-76
2023/01/22 10:19:03;;;;;;;12.10;10.93;;;;;;;35.49;15.97;95178.69;5066622;28;20391;-77
2023/01/22 10:21:31;;;;;;;12.48;11.23;;;;;;;34.18;16.66;95179.09;5063676;28;20031;-75
2023/01/22 10:23:57;;;;;;;13.70;12.23;;;;;;;35.26;16.13;95185.53;5065745;28;20206;-76
2023/01/22 10:26:31;;;;;;;14.25;12.85;;;;;;;35.57;16.27;95182.91;5064429;28;20105;-76
2023/01/22 10:28:58;;;;;;;15.45;12.35;;;;;;;34.85;16.79;95178.75;5065653;28;20513;-75
2023/01/22 10:31:27;;;;;;;13.30;11.88;;;;;;;35.01;16.64;95182.91;5060850;28;20037;-78
2023/01/22 10:33:57;;;;;;;12.13;10.82;;;;;;;35.54;16.03;95177.63;5065022;28;20017;-76
2023/01/22 10:36:23;;;;;;;11.70;10.38;;;;;;;37.19;14.73;95173.19;5065474;28;20024;-77
2023/01/22 10:38:49;;;;;;;11.45;10.10;;;;;;;38.42;14.04;95179.28;5064276;28;20475;-75
2023/01/22 10:41:17;;;;;;;11.80;10.43;;;;;;;39.32;12.62;95182.06;5064207;28;20107;-75
2023/01/22 10:43:43;;;;;;;11.10;10.00;;;;;;;39.35;12.70;95183.72;5062891;28;20032;-75
2023/01/22 10:46:16;;;;;;;13.38;9.63;;;;;;;38.14;13.66;95177.41;5063978;28;20035;-76
2023/01/22 10:48:42;;;;;;;10.48;9.48;;;;;;;38.11;13.54;95167.94;5064355;28;20085;-76
2023/01/22 10:51:14;;;;;;;10.60;9.50;;;;;;;37.41;13.89;95176.13;5063882;28;20028;-77
2023/01/22 10:53:50;;;;;;;11.85;8.82;;;;;;;38.14;13.07;95171.69;5063623;28;20020;-76
2023/01/22 10:56:32;;;;;;;10.43;8.45;;;;;;;38.01;13.66;95158.66;5060899;28;20024;-74
2023/01/22 10:58:58;;;;;;;8.15;7.00;;;;;;;37.32;13.60;95171.91;5063215;28;20109;-75
2023/01/22 11:01:32;;;;;;;2.70;2.40;;;;;;;36.17;13.61;95165.94;5034200;28;20040;-75
2023/01/22 11:03:58;;;;;;;3.75;2.75;;;;;;;35.12;14.42;95162.34;5062281;28;20080;-76
2023/01/22 11:06:32;;;;;;;5.40;3.55;;;;;;;37.08;13.20;95162.41;5062301;28;20029;-75
2023/01/22 11:09:01;;;;;;;6.40;5.50;;;;;;;38.05;12.74;95164.66;5061528;28;20034;-74
2023/01/22 11:11:34;;;;;;;8.18;5.97;;;;;;;39.22;12.16;95167.81;5063471;28;20025;-75
2023/01/22 11:14:03;;;;;;;7.70;6.00;;;;;;;39.53;11.95;95173.31;5063592;28;20048;-76
2023/01/22 11:16:32;;;;;;;6.00;5.10;;;;;;;40.77;10.64;95167.47;5064099;28;20019;-76
2023/01/22 11:19:02;;;;;;;5.53;4.85;;;;;;;41.70;10.49;95171.78;5062240;28;20043;-77
2023/01/22 11:21:37;;;;;;;7.90;5.22;;;;;;;42.30;9.99;95166.88;5060049;28;20415;-76
2023/01/22 11:24:20;;;;;;;6.03;4.80;;;;;;;43.21;9.13;95167.59;5062321;28;20446;-76
2023/01/22 11:27:07;;;;;;;6.93;3.95;;;;;;;42.46;9.27;95164.78;5059247;28;20462;-77
2023/01/22 11:29:51;;;;;;;5.20;3.60;;;;;;;40.69;10.02;95158.41;5062297;28;20486;-76
2023/01/22 11:32:41;;;;;;;5.38;3.60;;;;;;;40.71;9.93;95162.13;5062588;28;20017;-76